Weather at Cotulla-La Salle County Airport

Public forecast

Using degrees Fahrenheit for public forecast. Weather courtesy of forecast.io.

Current aviation weather report (METAR) for Cotulla-La Salle County Airport

Retrieved 2020/11/23 17:53 UTC (54 minutes ago):

KCOT 231753Z AUTO 11010KT 10SM OVC021 22/14 A3021 RMK AO2 SLP223 T02170139 10217 20161 58015

Aviation forecast (TAF) for Cotulla-La Salle County Airport

Retrieved 2020/11/23 18:42 UTC (5 minutes ago):

TAF KCOT 231741Z 2318/2418 10010KT P6SM BKN020 FM232100 12012KT P6SM SCT025 FM240700 13008KT P6SM SCT008 BKN014 FM241000 14007KT P6SM BKN008 OVC014 FM241500 17012G19KT P6SM BKN012 OVC025